Eaglesham, Canada
Current Conditions -  °F | °C
As of 2:00 AM on Thursday 23 Oct 2014 (Local Time) from CYPE Reporting Station
Clear Clear  
Wind Chill: 18°   Ceiling: Unl
Heat Index: 27°   Visibility: 15mi
Dew Point: 25°   Wind: 8mph
Humidity: 93%   Direction: 340°NNW
Pressure: 29.52"   Gusts: NA
Location:  55.78°N, 117.9°W
Report Text: CYPE 230800Z 34007KT 15SM SKC M03/M04 A2952 RMK SLP019
Loading
Personal Weather Stations






























Interactive Weather Map
Tropical Storm Tracking
New forecast layout! Learn more

10-Day Weather Forecast

Advertisements
Track Severe Weather on mobile